Symphony Moderna — JG5131 — position and weather

sailwx.info

Track history (hours):
 
Tides and Currents Weather Stations Pressure Air Temp Water Temp Dewpoint Dewpoint Depression Visibility Wind Speed Wind Dir Waves Ship Positions

Symphony Moderna

Last reported at 2017-Dec-17 16:28 UTC. Time now 2017-Dec-17 19:47 UTC.
Position N 35°39' E 139°46'.

Length 83 m; draft 3.3 m.

Type: Ship. MMSI: 431000424.

Date/timePositionNaut miles runAvg speedWind from/ knotsBaromVisibWave heightAir tempDewpointWater temp
2017-Dec-17 16:28N 35°39' E 139°46'0 0.0
2017-Dec-17 15:55N 35°39' E 139°46'0 0.0
2017-Dec-17 15:22N 35°39' E 139°46'0 0.1
2017-Dec-17 14:55N 35°39' E 139°46'0 0.1
2017-Dec-17 14:25N 35°39' E 139°46'0 0.0
2017-Dec-17 13:55N 35°39' E 139°46'0 0.0
2017-Dec-17 13:25N 35°39' E 139°46'0 0.0
2017-Dec-17 12:55N 35°39' E 139°46'0 0.1
2017-Dec-17 12:29N 35°39' E 139°46'2 3.5
2017-Dec-17 12:00N 35°37' E 139°46'4 8.6
2017-Dec-17 11:30N 35°34' E 139°49'2 4.3
2017-Dec-17 11:01N 35°36' E 139°51'4 7.4
2017-Dec-17 10:30N 35°37' E 139°46'3 4.5
2017-Dec-17 09:56N 35°39' E 139°46'0 0.1
2017-Dec-17 09:30N 35°39' E 139°46'3 5.7
2017-Dec-17 09:00N 35°36' E 139°47'4 7.1
2017-Dec-17 08:30N 35°35' E 139°50'3 6.0
2017-Dec-17 08:01N 35°36' E 139°47'3 6.4
2017-Dec-17 07:30N 35°39' E 139°46'0 0.0
2017-Dec-17 06:57N 35°39' E 139°46'2 3.5
2017-Dec-17 06:30N 35°37' E 139°46'2 3.1
2017-Dec-17 06:00N 35°39' E 139°46'0 0.0
2017-Dec-17 05:18N 35°39' E 139°46'0 0.0
2017-Dec-17 05:00N 35°39' E 139°46'3 5.2
2017-Dec-17 04:30N 35°36' E 139°46'4 7.2
2017-Dec-17 04:00N 35°34' E 139°50'3 5.7
2017-Dec-17 03:31N 35°36' E 139°48'3 6.0
2017-Dec-17 03:00N 35°39' E 139°46'0 0.0
2017-Dec-16 18:46N 35°39' E 139°46'0 0.0
2017-Dec-16 18:22N 35°39' E 139°46'0 0.0
2017-Dec-16 17:40N 35°39' E 139°46'0 0.0
2017-Dec-16 17:28N 35°39' E 139°46'0 0.0
2017-Dec-16 16:58N 35°39' E 139°46'0 0.0
2017-Dec-16 16:28N 35°39' E 139°46'0 0.0
2017-Dec-16 15:55N 35°39' E 139°46'0 0.0
2017-Dec-16 15:28N 35°39' E 139°46'0 0.1
2017-Dec-16 14:58N 35°39' E 139°46'0 0.1
2017-Dec-16 14:28N 35°39' E 139°46'0 0.0
2017-Dec-16 13:52N 35°39' E 139°46'0 0.0
2017-Dec-16 13:28N 35°39' E 139°46'0 0.0
2017-Dec-16 12:58N 35°39' E 139°46'0 0.1
2017-Dec-16 12:30N 35°39' E 139°46'2 4.8
2017-Dec-16 12:00N 35°37' E 139°46'4 7.5
2017-Dec-16 11:29N 35°33' E 139°49'1 1.7
2017-Dec-16 11:00N 35°34' E 139°48'4 8.8
2017-Dec-16 10:30N 35°38' E 139°46'1 1.9
2017-Dec-16 09:59N 35°39' E 139°46'0 0.1
2017-Dec-16 09:31N 35°39' E 139°46'4 8.1
2017-Dec-16 09:00N 35°35' E 139°48'3 5.2
2017-Dec-16 08:31N 35°35' E 139°51'3 6.7
2017-Dec-16 08:00N 35°36' E 139°47'3 2.7
2017-Dec-16 06:56N 35°39' E 139°46'2 3.9
2017-Dec-16 06:30N 35°37' E 139°46'2 1.2
2017-Dec-16 05:04N 35°39' E 139°46'0 0.8
2017-Dec-16 05:00N 35°39' E 139°46'3 6.3
2017-Dec-16 04:28N 35°36' E 139°47'3 6.6
2017-Dec-16 04:00N 35°35' E 139°50'3 5.7
2017-Dec-16 03:30N 35°36' E 139°47'3 0.6
2017-Dec-15 21:47N 35°39' E 139°46'0 0.1
2017-Dec-15 19:02N 35°39' E 139°46'0 0.0
2017-Dec-15 18:44N 35°39' E 139°46'0 0.0
2017-Dec-15 18:11N 35°39' E 139°46'0 0.0
2017-Dec-15 17:59N 35°39' E 139°46'0 0.0
2017-Dec-15 17:20N 35°39' E 139°46'0 0.0
2017-Dec-15 16:59N 35°39' E 139°46'0 0.0
2017-Dec-15 16:00N 35°39' E 139°46'0 0.0
2017-Dec-15 15:27N 35°39' E 139°46'0 0.0
2017-Dec-15 14:59N 35°39' E 139°46'0 0.0
2017-Dec-15 14:29N 35°39' E 139°46'0 0.0
2017-Dec-15 13:59N 35°39' E 139°46'0 0.0
2017-Dec-15 13:29N 35°39' E 139°46'0 0.0
2017-Dec-15 12:56N 35°39' E 139°46'0 0.0
2017-Dec-15 12:29N 35°39' E 139°46'0 0.0
2017-Dec-15 11:57N 35°39' E 139°46'1 2.0
2017-Dec-15 11:30N 35°38' E 139°46'4 7.5
2017-Dec-15 11:00N 35°35' E 139°48'3 5.7
2017-Dec-15 10:30N 35°35' E 139°51'3 6.5
2017-Dec-15 10:00N 35°36' E 139°47'3 6.7
2017-Dec-15 09:30N 35°39' E 139°46'0 0.1
2017-Dec-15 09:00N 35°39' E 139°46'0 0.0
2017-Dec-15 08:30N 35°39' E 139°46'0 0.0
2017-Dec-15 08:00N 35°39' E 139°46'0 0.0
2017-Dec-15 07:30N 35°39' E 139°46'0 0.0
2017-Dec-15 07:00N 35°39' E 139°46'1 1.4
2017-Dec-15 06:31N 35°39' E 139°46'1 1.3
2017-Dec-15 05:58N 35°39' E 139°46'0 0.0
2017-Dec-15 05:30N 35°39' E 139°46'0 0.0
2017-Dec-15 04:59N 35°39' E 139°46'2 4.8
2017-Dec-15 04:31N 35°37' E 139°46'4 8.4
2017-Dec-15 04:01N 35°34' E 139°50'6 0.6
2017-Dec-14 17:14N 35°39' E 139°46'0 0.0
2017-Dec-14 14:08N 35°39' E 139°46'0 0.0
2017-Dec-14 13:50N 35°39' E 139°46'0 0.0
2017-Dec-14 12:38N 35°39' E 139°46'0 0.4
2017-Dec-14 12:30N 35°39' E 139°46'2 4.3
2017-Dec-14 12:00N 35°37' E 139°46'3 6.8
2017-Dec-14 11:30N 35°34' E 139°49'2 3.8
2017-Dec-14 11:00N 35°35' E 139°51'4 7.7
2017-Dec-14 10:30N 35°37' E 139°46'2 4.7
2017-Dec-14 10:00N 35°39' E 139°46'0 0.0
2017-Dec-14 09:30N 35°39' E 139°46'2 3.3
2017-Dec-14 09:00N 35°37' E 139°46'4 8.4
2017-Dec-14 08:30N 35°34' E 139°49'3 5.4
2017-Dec-14 08:00N 35°37' E 139°48'3 6.0
2017-Dec-14 07:30N 35°39' E 139°46'0 0.0
2017-Dec-14 06:59N 35°39' E 139°46'1 1.2
2017-Dec-14 06:31N 35°39' E 139°46'1 1.1
2017-Dec-14 06:00N 35°39' E 139°46'0 0.0
2017-Dec-14 05:30N 35°39' E 139°46'0 0.0
2017-Dec-14 05:00N 35°39' E 139°46'2 4.4
2017-Dec-14 04:31N 35°37' E 139°46'4 7.7
2017-Dec-14 04:00N 35°34' E 139°50'3 5.8
2017-Dec-14 03:30N 35°37' E 139°49'3 6.0
2017-Dec-14 02:58N 35°39' E 139°46'0 0.0
2017-Dec-14 02:30N 35°39' E 139°46'0 0.0
2017-Dec-14 01:19N 35°39' E 139°46'0 0.0
2017-Dec-13 12:34N 35°39' E 139°46'0 0.6
2017-Dec-13 12:29N 35°39' E 139°46'2 4.5
2017-Dec-13 12:01N 35°37' E 139°46'5 9.8
2017-Dec-13 11:30N 35°33' E 139°50'3 5.5
2017-Dec-13 11:00N 35°36' E 139°51'4 7.8
2017-Dec-13 10:30N 35°37' E 139°46'2 2.1
2017-Dec-13 09:24N 35°39' E 139°46'2 4.2
2017-Dec-13 09:00N 35°37' E 139°46'4 8.8
2017-Dec-13 08:30N 35°34' E 139°49'3 5.8
2017-Dec-13 08:00N 35°37' E 139°48'3 2.5
2017-Dec-13 06:47N 35°39' E 139°46'1 2.9
2017-Dec-13 06:30N 35°39' E 139°47'1 0.6
2017-Dec-13 05:05N 35°39' E 139°46'0 0.0
2017-Dec-13 04:52N 35°39' E 139°46'1 2.3
2017-Dec-13 04:30N 35°38' E 139°46'5 9.7
2017-Dec-13 04:00N 35°34' E 139°49'2 4.8
2017-Dec-13 03:30N 35°36' E 139°50'4 7.0
2017-Dec-13 03:00N 35°38' E 139°46'1 0.8
2017-Dec-13 01:10N 35°39' E 139°46'0 0.0
2017-Dec-13 00:53N 35°39' E 139°46'0 0.0
2017-Dec-13 00:30N 35°39' E 139°46'0 0.0
2017-Dec-12 23:57N 35°39' E 139°46'0 0.0
2017-Dec-12 23:24N 35°39' E 139°46'0 0.0
2017-Dec-12 22:59N 35°39' E 139°46'0 0.0
2017-Dec-12 22:20N 35°39' E 139°46'0 0.0
2017-Dec-12 21:57N 35°39' E 139°46'0 0.0
2017-Dec-12 21:28N 35°39' E 139°46'0 0.0
2017-Dec-12 20:59N 35°39' E 139°46'0 0.0
2017-Dec-12 20:31N 35°39' E 139°46'0 0.0
2017-Dec-12 20:00N 35°39' E 139°46'0 0.0
2017-Dec-12 19:29N 35°39' E 139°46'0 0.0
2017-Dec-12 18:57N 35°39' E 139°46'0 0.0
2017-Dec-12 18:28N 35°39' E 139°46'0 0.0
2017-Dec-12 17:43N 35°39' E 139°46'0 0.0
2017-Dec-12 17:26N 35°39' E 139°46'0 0.0
2017-Dec-12 14:48N 35°39' E 139°46'0 0.0
2017-Dec-12 14:14N 35°39' E 139°46'0 0.0
2017-Dec-12 14:00N 35°39' E 139°46'0 0.0
2017-Dec-12 13:27N 35°39' E 139°46'0 0.0
2017-Dec-12 12:55N 35°39' E 139°46'0 0.0
2017-Dec-12 12:30N 35°39' E 139°46'0 0.0
2017-Dec-12 12:00N 35°39' E 139°46'2 4.4
2017-Dec-12 11:30N 35°37' E 139°46'4 8.2
2017-Dec-12 11:00N 35°35' E 139°51'3 6.6
2017-Dec-12 10:30N 35°36' E 139°47'3 6.3
2017-Dec-12 10:00N 35°39' E 139°46'0 0.0
2017-Dec-12 09:28N 35°39' E 139°46'2 3.6
2017-Dec-12 09:01N 35°37' E 139°46'5 9.0
2017-Dec-12 08:30N 35°34' E 139°50'3 5.6
2017-Dec-12 08:01N 35°36' E 139°47'3 3.5
2017-Dec-12 07:05N 35°39' E 139°46'0 0.0
2017-Dec-12 07:00N 35°39' E 139°46'1 1.5
2017-Dec-12 06:30N 35°39' E 139°46'1 1.5
2017-Dec-12 06:00N 35°39' E 139°46'0 0.0
2017-Dec-12 05:29N 35°39' E 139°46'0 0.0
2017-Dec-12 04:59N 35°39' E 139°46'2 3.9
2017-Dec-12 04:30N 35°37' E 139°46'4 7.6
2017-Dec-12 04:00N 35°34' E 139°48'3 5.5
2017-Dec-12 03:30N 35°36' E 139°50'4 7.6
2017-Dec-12 03:00N 35°37' E 139°46'2 0.6
2017-Dec-12 00:01N 35°39' E 139°46'0 0.0
2017-Dec-11 23:58N 35°39' E 139°46'0 0.0
2017-Dec-11 23:11N 35°39' E 139°46'0 0.0
2017-Dec-11 23:00N 35°39' E 139°46'0 0.0
2017-Dec-11 22:30N 35°39' E 139°46'0 0.0
2017-Dec-11 21:56N 35°39' E 139°46'0 0.0
2017-Dec-11 21:30N 35°39' E 139°46'0 0.0
2017-Dec-11 21:00N 35°39' E 139°46'0 0.0
2017-Dec-11 20:30N 35°39' E 139°46'0 0.0
2017-Dec-11 20:00N 35°39' E 139°46'0 0.0
2017-Dec-11 19:30N 35°39' E 139°46'0 0.0
2017-Dec-11 19:00N 35°39' E 139°46'0 0.0
2017-Dec-11 18:30N 35°39' E 139°46'0 0.0
2017-Dec-11 18:00N 35°39' E 139°46'0 0.0
2017-Dec-11 17:30N 35°39' E 139°46'0 0.0
2017-Dec-11 17:00N 35°39' E 139°46'0 0.0
2017-Dec-11 16:29N 35°39' E 139°46'0 0.0
2017-Dec-11 16:00N 35°39' E 139°46'0 0.0
2017-Dec-11 15:30N 35°39' E 139°46'0 0.0
2017-Dec-11 15:00N 35°39' E 139°46'0 0.0
2017-Dec-11 14:26N 35°39' E 139°46'0 0.0
2017-Dec-11 14:00N 35°39' E 139°46'0 0.0
2017-Dec-11 12:32N 35°39' E 139°46'0 0.9
2017-Dec-11 12:29N 35°39' E 139°46'1 2.2
2017-Dec-11 12:00N 35°38' E 139°46'4 8.2
2017-Dec-11 11:30N 35°34' E 139°48'0 0.6
2017-Dec-11 11:00N 35°34' E 139°48'3 5.2
2017-Dec-11 10:30N 35°36' E 139°46'3 2.7
2017-Dec-11 09:26N 35°39' E 139°46'1 3.1
2017-Dec-11 09:00N 35°38' E 139°46'4 8.5
2017-Dec-11 08:30N 35°34' E 139°48'1 2.8
2017-Dec-11 08:00N 35°35' E 139°47'4 8.1
2017-Dec-11 07:30N 35°39' E 139°46'0 0.1
2017-Dec-11 06:42N 35°39' E 139°46'1 2.9
2017-Dec-11 06:30N 35°38' E 139°46'1 1.1
2017-Dec-11 06:00N 35°39' E 139°46'0 0.0
2017-Dec-11 04:55N 35°39' E 139°46'2 5.5
2017-Dec-11 04:31N 35°37' E 139°46'3 6.9
2017-Dec-11 04:01N 35°34' E 139°48'3 6.2
2017-Dec-11 03:30N 35°37' E 139°50'3 6.7
2017-Dec-11 03:00N 35°38' E 139°46'1 0.1
2017-Dec-10 12:34N 35°39' E 139°46'0 0.8
2017-Dec-10 12:30N 35°39' E 139°46'1 2.2
2017-Dec-10 12:00N 35°38' E 139°46'4 8.5
2017-Dec-10 11:30N 35°34' E 139°49'2 3.8
2017-Dec-10 11:01N 35°36' E 139°50'3 6.9
2017-Dec-10 10:30N 35°36' E 139°46'3 5.4
2017-Dec-10 10:00N 35°39' E 139°46'0 0.0
2017-Dec-10 09:26N 35°39' E 139°46'2 5.4
2017-Dec-10 09:00N 35°37' E 139°46'4 8.0
2017-Dec-10 08:30N 35°35' E 139°50'3 6.3
2017-Dec-10 08:00N 35°36' E 139°47'3 6.4
2017-Dec-10 07:30N 35°39' E 139°46'0 0.0
2017-Dec-10 07:00N 35°39' E 139°46'0 0.8
2017-Dec-10 06:31N 35°39' E 139°46'0 0.7
2017-Dec-10 06:00N 35°39' E 139°46'0 0.1
2017-Dec-10 05:29N 35°39' E 139°46'0 0.1
2017-Dec-10 05:00N 35°39' E 139°46'3 5.8
2017-Dec-10 04:30N 35°36' E 139°47'4 7.6
2017-Dec-10 04:00N 35°34' E 139°51'3 6.5
2017-Dec-10 03:30N 35°36' E 139°48'3 0.2
2017-Dec-09 14:12N 35°39' E 139°46'0 0.0
2017-Dec-09 13:06N 35°39' E 139°46'0 0.0
2017-Dec-09 12:38N 35°39' E 139°46'0 0.3
2017-Dec-09 12:30N 35°39' E 139°46'2 3.5
2017-Dec-09 12:00N 35°37' E 139°46'5 9.3
2017-Dec-09 11:30N 35°34' E 139°50'3 5.6
2017-Dec-09 10:58N 35°37' E 139°49'3 6.7
2017-Dec-09 10:30N 35°37' E 139°46'2 3.2
2017-Dec-09 10:00N 35°39' E 139°46'0 0.0
2017-Dec-09 09:30N 35°39' E 139°46'3 5.3
2017-Dec-09 09:00N 35°36' E 139°46'4 7.6
2017-Dec-09 08:30N 35°35' E 139°51'3 6.6
2017-Dec-09 08:00N 35°36' E 139°47'3 6.2
2017-Dec-09 07:30N 35°39' E 139°46'0 0.0
2017-Dec-09 07:00N 35°39' E 139°46'1 1.2
2017-Dec-09 06:31N 35°39' E 139°46'1 1.1
2017-Dec-09 06:00N 35°39' E 139°46'0 0.0
2017-Dec-09 05:30N 35°39' E 139°46'0 0.1
2017-Dec-09 04:59N 35°39' E 139°46'3 6.7
2017-Dec-09 04:30N 35°36' E 139°47'3 7.1
2017-Dec-09 04:01N 35°34' E 139°51'3 6.6
2017-Dec-09 03:30N 35°36' E 139°48'3 6.1
2017-Dec-09 03:00N 35°39' E 139°46'0 0.0
2017-Dec-09 01:29N 35°39' E 139°46'0 0.0
2017-Dec-08 19:38N 35°39' E 139°46'0 0.0
2017-Dec-08 19:14N 35°39' E 139°46'0 0.0
2017-Dec-08 18:56N 35°39' E 139°46'0 0.0
2017-Dec-08 17:44N 35°39' E 139°46'0 0.0
2017-Dec-08 17:20N 35°39' E 139°46'0 0.0
2017-Dec-08 16:53N 35°39' E 139°46'0 0.0
2017-Dec-08 16:11N 35°39' E 139°46'0 0.0
2017-Dec-08 13:06N 35°39' E 139°46'0 0.0
2017-Dec-08 12:40N 35°39' E 139°46'0 0.3
2017-Dec-08 12:30N 35°39' E 139°46'3 5.3
2017-Dec-08 12:00N 35°36' E 139°46'4 8.5
2017-Dec-08 11:30N 35°34' E 139°51'3 6.3
2017-Dec-08 11:00N 35°37' E 139°49'3 5.5
2017-Dec-08 10:30N 35°37' E 139°46'2 1.9
2017-Dec-08 09:25N 35°39' E 139°46'2 4.9
2017-Dec-08 09:00N 35°37' E 139°46'5 9.1
2017-Dec-08 08:30N 35°34' E 139°50'3 6.2
2017-Dec-08 08:00N 35°36' E 139°47'3 6.5
2017-Dec-08 07:30N 35°39' E 139°46'0 0.0
2017-Dec-08 07:00N 35°39' E 139°46'1 1.1
2017-Dec-08 06:30N 35°38' E 139°46'1 0.6
2017-Dec-08 05:33N 35°39' E 139°46'0 0.0
2017-Dec-08 05:05N 35°39' E 139°46'0 0.0
2017-Dec-08 04:57N 35°39' E 139°46'2 4.3
2017-Dec-08 04:30N 35°37' E 139°46'5 9.1
2017-Dec-08 04:00N 35°34' E 139°50'3 6.3
2017-Dec-08 03:30N 35°37' E 139°49'3 6.3
2017-Dec-08 03:00N 35°38' E 139°46'  
Track history (hours):
 
Tides and Currents Weather Stations Pressure Air Temp Water Temp Dewpoint Dewpoint Depression Visibility Wind Speed Wind Dir Waves Ship Positions

Symphony Moderna

Last reported at 2017-Dec-17 16:28 UTC. Time now 2017-Dec-17 19:47 UTC.
Position N 35°39' E 139°46'.

Length 83 m; draft 3.3 m.

Type: Ship. MMSI: 431000424.

Date/timePositionNaut miles runAvg speedWind from/ knotsBaromVisibWave heightAir tempDewpointWater temp
2017-Dec-17 16:28N 35°39' E 139°46'0 0.0
2017-Dec-17 15:55N 35°39' E 139°46'0 0.0
2017-Dec-17 15:22N 35°39' E 139°46'0 0.1
2017-Dec-17 14:55N 35°39' E 139°46'0 0.1
2017-Dec-17 14:25N 35°39' E 139°46'0 0.0
2017-Dec-17 13:55N 35°39' E 139°46'0 0.0
2017-Dec-17 13:25N 35°39' E 139°46'0 0.0
2017-Dec-17 12:55N 35°39' E 139°46'0 0.1
2017-Dec-17 12:29N 35°39' E 139°46'2 3.5
2017-Dec-17 12:00N 35°37' E 139°46'4 8.6
2017-Dec-17 11:30N 35°34' E 139°49'2 4.3
2017-Dec-17 11:01N 35°36' E 139°51'4 7.4
2017-Dec-17 10:30N 35°37' E 139°46'3 4.5
2017-Dec-17 09:56N 35°39' E 139°46'0 0.1
2017-Dec-17 09:30N 35°39' E 139°46'3 5.7
2017-Dec-17 09:00N 35°36' E 139°47'4 7.1
2017-Dec-17 08:30N 35°35' E 139°50'3 6.0
2017-Dec-17 08:01N 35°36' E 139°47'3 6.4
2017-Dec-17 07:30N 35°39' E 139°46'0 0.0
2017-Dec-17 06:57N 35°39' E 139°46'2 3.5
2017-Dec-17 06:30N 35°37' E 139°46'2 3.1
2017-Dec-17 06:00N 35°39' E 139°46'0 0.0
2017-Dec-17 05:18N 35°39' E 139°46'0 0.0
2017-Dec-17 05:00N 35°39' E 139°46'3 5.2
2017-Dec-17 04:30N 35°36' E 139°46'4 7.2
2017-Dec-17 04:00N 35°34' E 139°50'3 5.7
2017-Dec-17 03:31N 35°36' E 139°48'3 6.0
2017-Dec-17 03:00N 35°39' E 139°46'0 0.0
2017-Dec-16 18:46N 35°39' E 139°46'0 0.0
2017-Dec-16 18:22N 35°39' E 139°46'0 0.0
2017-Dec-16 17:40N 35°39' E 139°46'0 0.0
2017-Dec-16 17:28N 35°39' E 139°46'0 0.0
2017-Dec-16 16:58N 35°39' E 139°46'0 0.0
2017-Dec-16 16:28N 35°39' E 139°46'0 0.0
2017-Dec-16 15:55N 35°39' E 139°46'0 0.0
2017-Dec-16 15:28N 35°39' E 139°46'0 0.1
2017-Dec-16 14:58N 35°39' E 139°46'0 0.1
2017-Dec-16 14:28N 35°39' E 139°46'0 0.0
2017-Dec-16 13:52N 35°39' E 139°46'0 0.0
2017-Dec-16 13:28N 35°39' E 139°46'0 0.0
2017-Dec-16 12:58N 35°39' E 139°46'0 0.1
2017-Dec-16 12:30N 35°39' E 139°46'2 4.8
2017-Dec-16 12:00N 35°37' E 139°46'4 7.5
2017-Dec-16 11:29N 35°33' E 139°49'1 1.7
2017-Dec-16 11:00N 35°34' E 139°48'4 8.8
2017-Dec-16 10:30N 35°38' E 139°46'1 1.9
2017-Dec-16 09:59N 35°39' E 139°46'0 0.1
2017-Dec-16 09:31N 35°39' E 139°46'4 8.1
2017-Dec-16 09:00N 35°35' E 139°48'3 5.2
2017-Dec-16 08:31N 35°35' E 139°51'3 6.7
2017-Dec-16 08:00N 35°36' E 139°47'3 2.7
2017-Dec-16 06:56N 35°39' E 139°46'2 3.9
2017-Dec-16 06:30N 35°37' E 139°46'2 1.2
2017-Dec-16 05:04N 35°39' E 139°46'0 0.8
2017-Dec-16 05:00N 35°39' E 139°46'3 6.3
2017-Dec-16 04:28N 35°36' E 139°47'3 6.6
2017-Dec-16 04:00N 35°35' E 139°50'3 5.7
2017-Dec-16 03:30N 35°36' E 139°47'3 0.6
2017-Dec-15 21:47N 35°39' E 139°46'0 0.1
2017-Dec-15 19:02N 35°39' E 139°46'0 0.0
2017-Dec-15 18:44N 35°39' E 139°46'0 0.0
2017-Dec-15 18:11N 35°39' E 139°46'0 0.0
2017-Dec-15 17:59N 35°39' E 139°46'0 0.0
2017-Dec-15 17:20N 35°39' E 139°46'0 0.0
2017-Dec-15 16:59N 35°39' E 139°46'0 0.0
2017-Dec-15 16:00N 35°39' E 139°46'0 0.0
2017-Dec-15 15:27N 35°39' E 139°46'0 0.0
2017-Dec-15 14:59N 35°39' E 139°46'0 0.0
2017-Dec-15 14:29N 35°39' E 139°46'0 0.0
2017-Dec-15 13:59N 35°39' E 139°46'0 0.0
2017-Dec-15 13:29N 35°39' E 139°46'0 0.0
2017-Dec-15 12:56N 35°39' E 139°46'0 0.0
2017-Dec-15 12:29N 35°39' E 139°46'0 0.0
2017-Dec-15 11:57N 35°39' E 139°46'1 2.0
2017-Dec-15 11:30N 35°38' E 139°46'4 7.5
2017-Dec-15 11:00N 35°35' E 139°48'3 5.7
2017-Dec-15 10:30N 35°35' E 139°51'3 6.5
2017-Dec-15 10:00N 35°36' E 139°47'3 6.7
2017-Dec-15 09:30N 35°39' E 139°46'0 0.1
2017-Dec-15 09:00N 35°39' E 139°46'0 0.0
2017-Dec-15 08:30N 35°39' E 139°46'0 0.0
2017-Dec-15 08:00N 35°39' E 139°46'0 0.0
2017-Dec-15 07:30N 35°39' E 139°46'0 0.0
2017-Dec-15 07:00N 35°39' E 139°46'1 1.4
2017-Dec-15 06:31N 35°39' E 139°46'1 1.3
2017-Dec-15 05:58N 35°39' E 139°46'0 0.0
2017-Dec-15 05:30N 35°39' E 139°46'0 0.0
2017-Dec-15 04:59N 35°39' E 139°46'2 4.8
2017-Dec-15 04:31N 35°37' E 139°46'4 8.4
2017-Dec-15 04:01N 35°34' E 139°50'6 0.6
2017-Dec-14 17:14N 35°39' E 139°46'0 0.0
2017-Dec-14 14:08N 35°39' E 139°46'0 0.0
2017-Dec-14 13:50N 35°39' E 139°46'0 0.0
2017-Dec-14 12:38N 35°39' E 139°46'0 0.4
2017-Dec-14 12:30N 35°39' E 139°46'2 4.3
2017-Dec-14 12:00N 35°37' E 139°46'3 6.8
2017-Dec-14 11:30N 35°34' E 139°49'2 3.8
2017-Dec-14 11:00N 35°35' E 139°51'4 7.7
2017-Dec-14 10:30N 35°37' E 139°46'2 4.7
2017-Dec-14 10:00N 35°39' E 139°46'0 0.0
2017-Dec-14 09:30N 35°39' E 139°46'2 3.3
2017-Dec-14 09:00N 35°37' E 139°46'4 8.4
2017-Dec-14 08:30N 35°34' E 139°49'3 5.4
2017-Dec-14 08:00N 35°37' E 139°48'3 6.0
2017-Dec-14 07:30N 35°39' E 139°46'0 0.0
2017-Dec-14 06:59N 35°39' E 139°46'1 1.2
2017-Dec-14 06:31N 35°39' E 139°46'1 1.1
2017-Dec-14 06:00N 35°39' E 139°46'0 0.0
2017-Dec-14 05:30N 35°39' E 139°46'0 0.0
2017-Dec-14 05:00N 35°39' E 139°46'2 4.4
2017-Dec-14 04:31N 35°37' E 139°46'4 7.7
2017-Dec-14 04:00N 35°34' E 139°50'3 5.8
2017-Dec-14 03:30N 35°37' E 139°49'3 6.0
2017-Dec-14 02:58N 35°39' E 139°46'0 0.0
2017-Dec-14 02:30N 35°39' E 139°46'0 0.0
2017-Dec-14 01:19N 35°39' E 139°46'0 0.0
2017-Dec-13 12:34N 35°39' E 139°46'0 0.6
2017-Dec-13 12:29N 35°39' E 139°46'2 4.5
2017-Dec-13 12:01N 35°37' E 139°46'5 9.8
2017-Dec-13 11:30N 35°33' E 139°50'3 5.5
2017-Dec-13 11:00N 35°36' E 139°51'4 7.8
2017-Dec-13 10:30N 35°37' E 139°46'2 2.1
2017-Dec-13 09:24N 35°39' E 139°46'2 4.2
2017-Dec-13 09:00N 35°37' E 139°46'4 8.8
2017-Dec-13 08:30N 35°34' E 139°49'3 5.8
2017-Dec-13 08:00N 35°37' E 139°48'3 2.5
2017-Dec-13 06:47N 35°39' E 139°46'1 2.9
2017-Dec-13 06:30N 35°39' E 139°47'1 0.6
2017-Dec-13 05:05N 35°39' E 139°46'0 0.0
2017-Dec-13 04:52N 35°39' E 139°46'1 2.3
2017-Dec-13 04:30N 35°38' E 139°46'5 9.7
2017-Dec-13 04:00N 35°34' E 139°49'2 4.8
2017-Dec-13 03:30N 35°36' E 139°50'4 7.0
2017-Dec-13 03:00N 35°38' E 139°46'1 0.8
2017-Dec-13 01:10N 35°39' E 139°46'0 0.0
2017-Dec-13 00:53N 35°39' E 139°46'0 0.0
2017-Dec-13 00:30N 35°39' E 139°46'0 0.0
2017-Dec-12 23:57N 35°39' E 139°46'0 0.0
2017-Dec-12 23:24N 35°39' E 139°46'0 0.0
2017-Dec-12 22:59N 35°39' E 139°46'0 0.0
2017-Dec-12 22:20N 35°39' E 139°46'0 0.0
2017-Dec-12 21:57N 35°39' E 139°46'0 0.0
2017-Dec-12 21:28N 35°39' E 139°46'0 0.0
2017-Dec-12 20:59N 35°39' E 139°46'0 0.0
2017-Dec-12 20:31N 35°39' E 139°46'0 0.0
2017-Dec-12 20:00N 35°39' E 139°46'0 0.0
2017-Dec-12 19:29N 35°39' E 139°46'0 0.0
2017-Dec-12 18:57N 35°39' E 139°46'0 0.0
2017-Dec-12 18:28N 35°39' E 139°46'0 0.0
2017-Dec-12 17:43N 35°39' E 139°46'0 0.0
2017-Dec-12 17:26N 35°39' E 139°46'0 0.0
2017-Dec-12 14:48N 35°39' E 139°46'0 0.0
2017-Dec-12 14:14N 35°39' E 139°46'0 0.0
2017-Dec-12 14:00N 35°39' E 139°46'0 0.0
2017-Dec-12 13:27N 35°39' E 139°46'0 0.0
2017-Dec-12 12:55N 35°39' E 139°46'0 0.0
2017-Dec-12 12:30N 35°39' E 139°46'0 0.0
2017-Dec-12 12:00N 35°39' E 139°46'2 4.4
2017-Dec-12 11:30N 35°37' E 139°46'4 8.2
2017-Dec-12 11:00N 35°35' E 139°51'3 6.6
2017-Dec-12 10:30N 35°36' E 139°47'3 6.3
2017-Dec-12 10:00N 35°39' E 139°46'0 0.0
2017-Dec-12 09:28N 35°39' E 139°46'2 3.6
2017-Dec-12 09:01N 35°37' E 139°46'5 9.0
2017-Dec-12 08:30N 35°34' E 139°50'3 5.6
2017-Dec-12 08:01N 35°36' E 139°47'3 3.5
2017-Dec-12 07:05N 35°39' E 139°46'0 0.0
2017-Dec-12 07:00N 35°39' E 139°46'1 1.5
2017-Dec-12 06:30N 35°39' E 139°46'1 1.5
2017-Dec-12 06:00N 35°39' E 139°46'0 0.0
2017-Dec-12 05:29N 35°39' E 139°46'0 0.0
2017-Dec-12 04:59N 35°39' E 139°46'2 3.9
2017-Dec-12 04:30N 35°37' E 139°46'4 7.6
2017-Dec-12 04:00N 35°34' E 139°48'3 5.5
2017-Dec-12 03:30N 35°36' E 139°50'4 7.6
2017-Dec-12 03:00N 35°37' E 139°46'2 0.6
2017-Dec-12 00:01N 35°39' E 139°46'0 0.0
2017-Dec-11 23:58N 35°39' E 139°46'0 0.0
2017-Dec-11 23:11N 35°39' E 139°46'0 0.0
2017-Dec-11 23:00N 35°39' E 139°46'0 0.0
2017-Dec-11 22:30N 35°39' E 139°46'0 0.0
2017-Dec-11 21:56N 35°39' E 139°46'0 0.0
2017-Dec-11 21:30N 35°39' E 139°46'0 0.0
2017-Dec-11 21:00N 35°39' E 139°46'0 0.0
2017-Dec-11 20:30N 35°39' E 139°46'0 0.0
2017-Dec-11 20:00N 35°39' E 139°46'0 0.0
2017-Dec-11 19:30N 35°39' E 139°46'0 0.0
2017-Dec-11 19:00N 35°39' E 139°46'0 0.0
2017-Dec-11 18:30N 35°39' E 139°46'0 0.0
2017-Dec-11 18:00N 35°39' E 139°46'0 0.0
2017-Dec-11 17:30N 35°39' E 139°46'0 0.0
2017-Dec-11 17:00N 35°39' E 139°46'0 0.0
2017-Dec-11 16:29N 35°39' E 139°46'0 0.0
2017-Dec-11 16:00N 35°39' E 139°46'0 0.0
2017-Dec-11 15:30N 35°39' E 139°46'0 0.0
2017-Dec-11 15:00N 35°39' E 139°46'0 0.0
2017-Dec-11 14:26N 35°39' E 139°46'0 0.0
2017-Dec-11 14:00N 35°39' E 139°46'0 0.0
2017-Dec-11 12:32N 35°39' E 139°46'0 0.9
2017-Dec-11 12:29N 35°39' E 139°46'1 2.2
2017-Dec-11 12:00N 35°38' E 139°46'4 8.2
2017-Dec-11 11:30N 35°34' E 139°48'0 0.6
2017-Dec-11 11:00N 35°34' E 139°48'3 5.2
2017-Dec-11 10:30N 35°36' E 139°46'3 2.7
2017-Dec-11 09:26N 35°39' E 139°46'1 3.1
2017-Dec-11 09:00N 35°38' E 139°46'4 8.5
2017-Dec-11 08:30N 35°34' E 139°48'1 2.8
2017-Dec-11 08:00N 35°35' E 139°47'4 8.1
2017-Dec-11 07:30N 35°39' E 139°46'0 0.1
2017-Dec-11 06:42N 35°39' E 139°46'1 2.9
2017-Dec-11 06:30N 35°38' E 139°46'1 1.1
2017-Dec-11 06:00N 35°39' E 139°46'0 0.0
2017-Dec-11 04:55N 35°39' E 139°46'2 5.5
2017-Dec-11 04:31N 35°37' E 139°46'3 6.9
2017-Dec-11 04:01N 35°34' E 139°48'3 6.2
2017-Dec-11 03:30N 35°37' E 139°50'3 6.7
2017-Dec-11 03:00N 35°38' E 139°46'1 0.1
2017-Dec-10 12:34N 35°39' E 139°46'0 0.8
2017-Dec-10 12:30N 35°39' E 139°46'1 2.2
2017-Dec-10 12:00N 35°38' E 139°46'4 8.5
2017-Dec-10 11:30N 35°34' E 139°49'2 3.8
2017-Dec-10 11:01N 35°36' E 139°50'3 6.9
2017-Dec-10 10:30N 35°36' E 139°46'3 5.4
2017-Dec-10 10:00N 35°39' E 139°46'0 0.0
2017-Dec-10 09:26N 35°39' E 139°46'2 5.4
2017-Dec-10 09:00N 35°37' E 139°46'4 8.0
2017-Dec-10 08:30N 35°35' E 139°50'3 6.3
2017-Dec-10 08:00N 35°36' E 139°47'3 6.4
2017-Dec-10 07:30N 35°39' E 139°46'0 0.0
2017-Dec-10 07:00N 35°39' E 139°46'0 0.8
2017-Dec-10 06:31N 35°39' E 139°46'0 0.7
2017-Dec-10 06:00N 35°39' E 139°46'0 0.1
2017-Dec-10 05:29N 35°39' E 139°46'0 0.1
2017-Dec-10 05:00N 35°39' E 139°46'3 5.8
2017-Dec-10 04:30N 35°36' E 139°47'4 7.6
2017-Dec-10 04:00N 35°34' E 139°51'3 6.5
2017-Dec-10 03:30N 35°36' E 139°48'3 0.2
2017-Dec-09 14:12N 35°39' E 139°46'0 0.0
2017-Dec-09 13:06N 35°39' E 139°46'0 0.0
2017-Dec-09 12:38N 35°39' E 139°46'0 0.3
2017-Dec-09 12:30N 35°39' E 139°46'2 3.5
2017-Dec-09 12:00N 35°37' E 139°46'5 9.3
2017-Dec-09 11:30N 35°34' E 139°50'3 5.6
2017-Dec-09 10:58N 35°37' E 139°49'3 6.7
2017-Dec-09 10:30N 35°37' E 139°46'2 3.2
2017-Dec-09 10:00N 35°39' E 139°46'0 0.0
2017-Dec-09 09:30N 35°39' E 139°46'3 5.3
2017-Dec-09 09:00N 35°36' E 139°46'4 7.6
2017-Dec-09 08:30N 35°35' E 139°51'3 6.6
2017-Dec-09 08:00N 35°36' E 139°47'3 6.2
2017-Dec-09 07:30N 35°39' E 139°46'0 0.0
2017-Dec-09 07:00N 35°39' E 139°46'1 1.2
2017-Dec-09 06:31N 35°39' E 139°46'1 1.1
2017-Dec-09 06:00N 35°39' E 139°46'0 0.0
2017-Dec-09 05:30N 35°39' E 139°46'0 0.1
2017-Dec-09 04:59N 35°39' E 139°46'3 6.7
2017-Dec-09 04:30N 35°36' E 139°47'3 7.1
2017-Dec-09 04:01N 35°34' E 139°51'3 6.6
2017-Dec-09 03:30N 35°36' E 139°48'3 6.1
2017-Dec-09 03:00N 35°39' E 139°46'0 0.0
2017-Dec-09 01:29N 35°39' E 139°46'0 0.0
2017-Dec-08 19:38N 35°39' E 139°46'0 0.0
2017-Dec-08 19:14N 35°39' E 139°46'0 0.0
2017-Dec-08 18:56N 35°39' E 139°46'0 0.0
2017-Dec-08 17:44N 35°39' E 139°46'0 0.0
2017-Dec-08 17:20N 35°39' E 139°46'0 0.0
2017-Dec-08 16:53N 35°39' E 139°46'0 0.0
2017-Dec-08 16:11N 35°39' E 139°46'0 0.0
2017-Dec-08 13:06N 35°39' E 139°46'0 0.0
2017-Dec-08 12:40N 35°39' E 139°46'0 0.3
2017-Dec-08 12:30N 35°39' E 139°46'3 5.3
2017-Dec-08 12:00N 35°36' E 139°46'4 8.5
2017-Dec-08 11:30N 35°34' E 139°51'3 6.3
2017-Dec-08 11:00N 35°37' E 139°49'3 5.5
2017-Dec-08 10:30N 35°37' E 139°46'2 1.9
2017-Dec-08 09:25N 35°39' E 139°46'2 4.9
2017-Dec-08 09:00N 35°37' E 139°46'5 9.1
2017-Dec-08 08:30N 35°34' E 139°50'3 6.2
2017-Dec-08 08:00N 35°36' E 139°47'3 6.5
2017-Dec-08 07:30N 35°39' E 139°46'0 0.0
2017-Dec-08 07:00N 35°39' E 139°46'1 1.1
2017-Dec-08 06:30N 35°38' E 139°46'1 0.6
2017-Dec-08 05:33N 35°39' E 139°46'0 0.0
2017-Dec-08 05:05N 35°39' E 139°46'0 0.0
2017-Dec-08 04:57N 35°39' E 139°46'2 4.3
2017-Dec-08 04:30N 35°37' E 139°46'5 9.1
2017-Dec-08 04:00N 35°34' E 139°50'3 6.3
2017-Dec-08 03:30N 35°37' E 139°49'3 6.3
2017-Dec-08 03:00N 35°38' E 139°46'  

Dump ship's entire track history